Decoded Metar for KIOW (IOWA CITY in IA, USA) (IATA:IOW) | Meteo·Mobile Aviation Weather
aviador You're here:

KIOW Decoded Metar

IOWA CITY in IA, USA
Report Time2018-11-19 21:52:00
UTC Time2018-11-19 22:41:01
Flight Rules vfr VFR
Wind310° at 09 kt
W.Decomp.*RWY 30: 8.9 kt HW 1.3 kt RCW
RWY 25: 4.8 kt HW 7.6 kt RCW
W.Rank310° ranks 1
Current wind is below 310° avg. (10.0)
Visibility9999 m
Phenomena:N/A
Clouds:Few 065 Hf
Broken 120 Hf
Expected CloudBase > 1,600 ft AGL from Temp-Dew spread
Ceiling12,000 ft
Temp00°C (ISA -14)
Dew Point-4°C (75% RH)
AAT-5.7°C
QNH1019 hPa
Density Alt-1,161 ft
Elevation650 ft
Report Wrong Elevation
Raw Report
KIOW 192152Z AUTO 31009KT 10SM FEW065 BKN120 00/M04 A3010 RMK AO2
SLP201 T00001044=

Extra information for KIOW:More info

Metar Taf Metar & Taf Last 4 Metars F.Rules Stats Wind Profile Meteogram Temp Stats Airport Information Weather charts Add Link Nearby VenuesMetar ALERT Operation Metar Decoded Social comments

AIRNAV info for KIOW